createdAt,value
2022-08-04T00:00:23.962Z,986.66
2022-08-04T00:01:24.013Z,986.66
2022-08-04T00:02:23.917Z,986.66
2022-08-04T00:03:23.908Z,986.66
2022-08-04T00:04:23.916Z,986.66
2022-08-04T00:05:23.889Z,986.64
2022-08-04T00:06:23.875Z,986.63
2022-08-04T00:07:43.970Z,986.63
2022-08-04T00:08:24.911Z,986.62
2022-08-04T00:09:23.849Z,986.62
2022-08-04T00:10:23.902Z,986.63
2022-08-04T00:11:23.839Z,986.64
2022-08-04T00:12:29.383Z,986.64
2022-08-04T00:13:24.872Z,986.66
2022-08-04T00:14:23.835Z,986.66
2022-08-04T00:15:23.818Z,986.67
2022-08-04T00:16:23.825Z,986.67
2022-08-04T00:17:24.793Z,986.66
2022-08-04T00:18:23.777Z,986.65
2022-08-04T00:19:23.791Z,986.65
2022-08-04T00:20:23.764Z,986.65
2022-08-04T00:21:23.792Z,986.65
2022-08-04T00:22:23.790Z,986.66
2022-08-04T00:23:23.750Z,986.67
2022-08-04T00:24:23.752Z,986.67
2022-08-04T00:25:23.723Z,986.68
2022-08-04T00:26:23.723Z,986.69
2022-08-04T00:27:23.946Z,986.70
2022-08-04T00:28:23.734Z,986.70
2022-08-04T00:29:23.944Z,986.70
2022-08-04T00:30:23.689Z,986.70
2022-08-04T00:31:33.199Z,986.70
2022-08-04T00:32:34.185Z,986.71
2022-08-04T00:33:24.675Z,986.69
2022-08-04T00:34:23.652Z,986.69
2022-08-04T00:35:23.639Z,986.68
2022-08-04T00:36:23.643Z,986.67
2022-08-04T00:37:23.817Z,986.67
2022-08-04T00:38:23.652Z,986.66
2022-08-04T00:39:23.760Z,986.66
2022-08-04T00:40:23.622Z,986.66
2022-08-04T00:41:23.629Z,986.66
2022-08-04T00:42:23.604Z,986.66
2022-08-04T00:43:23.594Z,986.65
2022-08-04T00:44:24.159Z,986.65
2022-08-04T00:45:23.563Z,986.65
2022-08-04T00:46:23.616Z,986.64
2022-08-04T00:47:23.746Z,986.63
2022-08-04T00:48:23.538Z,986.62
2022-08-04T00:49:23.550Z,986.62
2022-08-04T00:50:23.522Z,986.62
2022-08-04T00:51:23.531Z,986.61
2022-08-04T00:52:31.805Z,986.61
2022-08-04T00:53:24.532Z,986.61
2022-08-04T00:54:23.503Z,986.60
2022-08-04T00:55:23.524Z,986.60
2022-08-04T00:56:23.496Z,986.60
2022-08-04T00:57:29.982Z,986.59
2022-08-04T00:58:24.471Z,986.60
2022-08-04T00:59:23.444Z,986.61
2022-08-04T01:00:23.442Z,986.61
2022-08-04T01:01:23.532Z,986.61
2022-08-04T01:02:23.455Z,986.61
2022-08-04T01:03:23.421Z,986.61
2022-08-04T01:04:23.416Z,986.61
2022-08-04T01:05:23.426Z,986.61
2022-08-04T01:06:23.407Z,986.61
2022-08-04T01:07:23.589Z,986.62
2022-08-04T01:08:23.388Z,986.62
2022-08-04T01:09:23.388Z,986.63
2022-08-04T01:10:23.384Z,986.63
2022-08-04T01:11:23.372Z,986.63
2022-08-04T01:12:23.379Z,986.62
2022-08-04T01:13:23.357Z,986.62
2022-08-04T01:14:23.389Z,986.61
2022-08-04T01:15:23.329Z,986.61
2022-08-04T01:16:23.315Z,986.62
2022-08-04T01:17:23.620Z,986.62
2022-08-04T01:18:23.337Z,986.62
2022-08-04T01:19:23.291Z,986.62
2022-08-04T01:20:23.314Z,986.62
2022-08-04T01:21:23.275Z,986.62
2022-08-04T01:22:23.313Z,986.62
2022-08-04T01:23:23.273Z,986.61
2022-08-04T01:24:23.285Z,986.60
2022-08-04T01:25:23.375Z,986.60
2022-08-04T01:26:42.127Z,986.60
2022-08-04T01:27:24.251Z,986.59
2022-08-04T01:28:23.241Z,986.59
2022-08-04T01:29:23.254Z,986.59
2022-08-04T01:30:23.205Z,986.60
2022-08-04T01:31:23.210Z,986.60
2022-08-04T01:32:25.649Z,986.60
2022-08-04T01:33:23.184Z,986.60
2022-08-04T01:34:23.184Z,986.59
2022-08-04T01:35:46.549Z,986.59
2022-08-04T01:36:24.172Z,986.57
2022-08-04T01:37:23.517Z,986.57
2022-08-04T01:38:23.146Z,986.56
2022-08-04T01:39:23.211Z,986.56
2022-08-04T01:40:23.120Z,986.55
2022-08-04T01:41:32.153Z,986.55
2022-08-04T01:42:31.626Z,986.54
2022-08-04T01:43:24.103Z,986.54
2022-08-04T01:44:23.100Z,986.54
2022-08-04T01:45:23.126Z,986.54
2022-08-04T01:46:23.101Z,986.54
2022-08-04T01:47:23.370Z,986.54
2022-08-04T01:48:23.155Z,986.54
2022-08-04T01:49:23.142Z,986.54
2022-08-04T01:50:23.096Z,986.54
2022-08-04T01:51:23.053Z,986.53
2022-08-04T01:52:23.033Z,986.53
2022-08-04T01:53:23.041Z,986.53
2022-08-04T01:54:23.021Z,986.53
2022-08-04T01:55:23.003Z,986.53
2022-08-04T01:56:23.024Z,986.53
2022-08-04T01:57:38.428Z,986.54
2022-08-04T01:58:24.002Z,986.55
2022-08-04T01:59:22.979Z,986.55
2022-08-04T02:00:23.004Z,986.55
2022-08-04T02:01:23.025Z,986.55
2022-08-04T02:02:23.131Z,986.54
2022-08-04T02:03:22.966Z,986.54
2022-08-04T02:04:24.046Z,986.54
2022-08-04T02:05:22.948Z,986.54
2022-08-04T02:06:22.934Z,986.54
2022-08-04T02:07:23.221Z,986.54
2022-08-04T02:08:22.915Z,986.54
2022-08-04T02:09:22.911Z,986.53
2022-08-04T02:10:22.894Z,986.53
2022-08-04T02:11:22.909Z,986.52
2022-08-04T02:12:22.928Z,986.51
2022-08-04T02:13:22.868Z,986.51
2022-08-04T02:14:22.889Z,986.51
2022-08-04T02:15:22.869Z,986.50
2022-08-04T02:16:22.855Z,986.51
2022-08-04T02:17:23.212Z,986.51
2022-08-04T02:18:22.855Z,986.50
2022-08-04T02:19:22.827Z,986.50
2022-08-04T02:20:22.842Z,986.50
2022-08-04T02:21:22.819Z,986.50
2022-08-04T02:22:22.812Z,986.50
2022-08-04T02:23:22.914Z,986.50
2022-08-04T02:24:22.777Z,986.49
2022-08-04T02:25:22.768Z,986.49
2022-08-04T02:26:23.179Z,986.48
2022-08-04T02:27:23.105Z,986.47
2022-08-04T02:28:22.787Z,986.46
2022-08-04T02:29:22.749Z,986.45
2022-08-04T02:30:22.742Z,986.44
2022-08-04T02:31:22.729Z,986.42
2022-08-04T02:32:22.726Z,986.42
2022-08-04T02:33:22.738Z,986.43
2022-08-04T02:34:22.724Z,986.45
2022-08-04T02:35:22.698Z,986.47
2022-08-04T02:36:22.708Z,986.46
2022-08-04T02:37:22.890Z,986.43
2022-08-04T02:38:25.341Z,986.42
2022-08-04T02:39:22.733Z,986.41
2022-08-04T02:40:22.690Z,986.40
2022-08-04T02:41:22.648Z,986.40
2022-08-04T02:42:22.633Z,986.39
2022-08-04T02:43:50.319Z,986.37
2022-08-04T02:44:23.621Z,986.37
2022-08-04T02:45:22.623Z,986.36
2022-08-04T02:46:22.641Z,986.36
2022-08-04T02:47:22.884Z,986.36
2022-08-04T02:48:30.765Z,986.36
2022-08-04T02:49:23.607Z,986.36
2022-08-04T02:50:28.447Z,986.36
2022-08-04T02:51:23.562Z,986.35
2022-08-04T02:52:22.568Z,986.34
2022-08-04T02:53:22.551Z,986.33
2022-08-04T02:54:32.894Z,986.32
2022-08-04T02:55:23.547Z,986.31
2022-08-04T02:56:22.539Z,986.31
2022-08-04T02:57:22.797Z,986.30
2022-08-04T02:58:22.522Z,986.30
2022-08-04T02:59:22.507Z,986.30
2022-08-04T03:00:22.500Z,986.29
2022-08-04T03:01:22.559Z,986.29
2022-08-04T03:02:22.493Z,986.28
2022-08-04T03:03:22.489Z,986.28
2022-08-04T03:04:25.073Z,986.28
2022-08-04T03:05:22.487Z,986.27
2022-08-04T03:06:22.449Z,986.26
2022-08-04T03:07:22.680Z,986.25
2022-08-04T03:08:22.422Z,986.25
2022-08-04T03:09:22.421Z,986.25
2022-08-04T03:10:22.432Z,986.24
2022-08-04T03:11:22.436Z,986.23
2022-08-04T03:12:22.403Z,986.23
2022-08-04T03:13:22.400Z,986.22
2022-08-04T03:14:22.393Z,986.23
2022-08-04T03:15:22.387Z,986.22
2022-08-04T03:16:22.374Z,986.23
2022-08-04T03:17:23.139Z,986.21
2022-08-04T03:18:22.378Z,986.20
2022-08-04T03:19:22.358Z,986.19
2022-08-04T03:20:22.345Z,986.19
2022-08-04T03:21:22.327Z,986.19
2022-08-04T03:22:22.359Z,986.20
2022-08-04T03:23:22.342Z,986.20
2022-08-04T03:24:22.290Z,986.21
2022-08-04T03:25:22.294Z,986.22
2022-08-04T03:26:22.347Z,986.22
2022-08-04T03:27:22.605Z,986.22
2022-08-04T03:28:22.285Z,986.22
2022-08-04T03:29:35.942Z,986.22
2022-08-04T03:30:23.248Z,986.23
2022-08-04T03:31:22.253Z,986.23
2022-08-04T03:32:22.278Z,986.23
2022-08-04T03:33:22.252Z,986.23
2022-08-04T03:34:22.250Z,986.23
2022-08-04T03:35:23.022Z,986.24
2022-08-04T03:36:23.015Z,986.24
2022-08-04T03:37:22.524Z,986.25
2022-08-04T03:38:22.187Z,986.26
2022-08-04T03:39:22.248Z,986.26
2022-08-04T03:40:22.181Z,986.26
2022-08-04T03:41:55.024Z,986.26
2022-08-04T03:42:23.145Z,986.25
2022-08-04T03:43:57.218Z,986.26
2022-08-04T03:44:23.153Z,986.27
2022-08-04T03:45:24.128Z,986.28
2022-08-04T03:46:22.138Z,986.29
2022-08-04T03:47:22.345Z,986.29
2022-08-04T03:48:22.109Z,986.29
2022-08-04T03:49:22.156Z,986.29
2022-08-04T03:50:22.092Z,986.29
2022-08-04T03:51:34.941Z,986.28
2022-08-04T03:52:23.081Z,986.27
2022-08-04T03:53:22.130Z,986.27
2022-08-04T03:54:22.081Z,986.27
2022-08-04T03:55:22.068Z,986.27
2022-08-04T03:56:22.042Z,986.27
2022-08-04T03:57:22.309Z,986.27
2022-08-04T03:58:22.020Z,986.29
2022-08-04T03:59:23.016Z,986.31
2022-08-04T04:00:22.008Z,986.31
2022-08-04T04:01:22.035Z,986.31
2022-08-04T04:02:22.025Z,986.32
2022-08-04T04:03:28.612Z,986.33
2022-08-04T04:04:22.967Z,986.33
2022-08-04T04:05:22.187Z,986.33
2022-08-04T04:06:21.961Z,986.34
2022-08-04T04:07:24.477Z,986.34
2022-08-04T04:08:22.945Z,986.34
2022-08-04T04:09:21.944Z,986.33
2022-08-04T04:10:25.911Z,986.32
2022-08-04T04:11:23.852Z,986.33
2022-08-04T04:12:21.961Z,986.33
2022-08-04T04:13:21.927Z,986.33
2022-08-04T04:14:21.972Z,986.35
2022-08-04T04:15:21.908Z,986.35
2022-08-04T04:16:21.986Z,986.35
2022-08-04T04:17:22.239Z,986.35
2022-08-04T04:18:21.883Z,986.34
2022-08-04T04:19:21.849Z,986.35
2022-08-04T04:20:21.920Z,986.35
2022-08-04T04:21:21.836Z,986.34
2022-08-04T04:22:21.827Z,986.33
2022-08-04T04:23:21.818Z,986.31
2022-08-04T04:24:21.827Z,986.31
2022-08-04T04:25:21.809Z,986.32
2022-08-04T04:26:21.850Z,986.31
2022-08-04T04:27:22.133Z,986.31
2022-08-04T04:28:46.426Z,986.30
2022-08-04T04:29:22.777Z,986.31
2022-08-04T04:30:21.814Z,986.31
2022-08-04T04:31:21.750Z,986.31
2022-08-04T04:32:21.746Z,986.31
2022-08-04T04:33:21.811Z,986.31
2022-08-04T04:34:21.742Z,986.31
2022-08-04T04:35:21.724Z,986.31
2022-08-04T04:36:21.764Z,986.31
2022-08-04T04:37:21.995Z,986.31
2022-08-04T04:38:21.703Z,986.31
2022-08-04T04:39:22.412Z,986.31
2022-08-04T04:40:21.688Z,986.32
2022-08-04T04:41:21.688Z,986.32
2022-08-04T04:42:21.761Z,986.31
2022-08-04T04:43:21.662Z,986.31
2022-08-04T04:44:26.215Z,986.31
2022-08-04T04:45:22.695Z,986.31
2022-08-04T04:46:21.658Z,986.31
2022-08-04T04:47:43.309Z,986.32
2022-08-04T04:48:22.622Z,986.32
2022-08-04T04:49:21.645Z,986.34
2022-08-04T04:50:21.603Z,986.34
2022-08-04T04:51:22.613Z,986.35
2022-08-04T04:52:21.605Z,986.36
2022-08-04T04:53:21.679Z,986.36
2022-08-04T04:54:21.572Z,986.37
2022-08-04T04:55:21.589Z,986.36
2022-08-04T04:56:21.589Z,986.36
2022-08-04T04:57:49.206Z,986.36
2022-08-04T04:58:22.539Z,986.36
2022-08-04T04:59:21.567Z,986.36
2022-08-04T05:00:21.554Z,986.36
2022-08-04T05:01:21.533Z,986.36
2022-08-04T05:02:21.545Z,986.36
2022-08-04T05:03:21.505Z,986.37
2022-08-04T05:04:21.505Z,986.37
2022-08-04T05:05:21.527Z,986.38
2022-08-04T05:06:21.505Z,986.37
2022-08-04T05:07:21.822Z,986.36
2022-08-04T05:08:43.262Z,986.37
2022-08-04T05:09:22.461Z,986.37
2022-08-04T05:10:21.441Z,986.38
2022-08-04T05:11:21.481Z,986.37
2022-08-04T05:14:31.939Z,986.36
2022-08-04T05:14:36.356Z,986.37
2022-08-04T05:14:36.728Z,986.38
2022-08-04T05:15:25.472Z,986.39
2022-08-04T05:16:21.411Z,986.41
2022-08-04T05:17:21.585Z,986.42
2022-08-04T05:18:21.385Z,986.43
2022-08-04T05:19:21.415Z,986.44
2022-08-04T05:20:21.373Z,986.45
2022-08-04T05:21:21.364Z,986.46
2022-08-04T05:22:21.372Z,986.47
2022-08-04T05:23:21.341Z,986.47
2022-08-04T05:24:21.523Z,986.48
2022-08-04T05:25:21.328Z,986.49
2022-08-04T05:26:21.341Z,986.48
2022-08-04T05:27:21.559Z,986.49
2022-08-04T05:28:21.300Z,986.49
2022-08-04T05:29:21.318Z,986.48
2022-08-04T05:30:21.295Z,986.48
2022-08-04T05:31:21.285Z,986.46
2022-08-04T05:32:21.271Z,986.45
2022-08-04T05:33:23.156Z,986.45
2022-08-04T05:34:21.288Z,986.45
2022-08-04T05:35:50.511Z,986.45
2022-08-04T05:36:40.128Z,986.45
2022-08-04T05:37:22.392Z,986.44
2022-08-04T05:38:21.232Z,986.42
2022-08-04T05:39:21.326Z,986.40
2022-08-04T05:40:21.207Z,986.38
2022-08-04T05:41:21.251Z,986.38
2022-08-04T05:42:21.191Z,986.38
2022-08-04T05:43:21.172Z,986.38
2022-08-04T05:44:21.493Z,986.38
2022-08-04T05:45:21.226Z,986.36
2022-08-04T05:46:21.156Z,986.35
2022-08-04T05:47:21.386Z,986.35
2022-08-04T05:48:21.152Z,986.36
2022-08-04T05:49:21.235Z,986.35
2022-08-04T05:50:21.148Z,986.33
2022-08-04T05:51:21.114Z,986.33
2022-08-04T05:52:21.177Z,986.32
2022-08-04T05:53:21.098Z,986.33
2022-08-04T05:54:21.120Z,986.32
2022-08-04T05:55:48.701Z,986.32
2022-08-04T05:56:22.113Z,986.32
2022-08-04T05:57:21.192Z,986.33
2022-08-04T05:58:21.076Z,986.33
2022-08-04T05:59:21.054Z,986.32
2022-08-04T06:00:40.098Z,986.31
2022-08-04T06:01:22.074Z,986.31
2022-08-04T06:02:21.064Z,986.31
2022-08-04T06:03:21.013Z,986.30
2022-08-04T06:04:21.015Z,986.29
2022-08-04T06:05:20.988Z,986.29
2022-08-04T06:06:21.002Z,986.27
2022-08-04T06:07:21.760Z,986.26
2022-08-04T06:08:21.064Z,986.25
2022-08-04T06:09:21.051Z,986.25
2022-08-04T06:10:25.394Z,986.25
2022-08-04T06:11:21.940Z,986.25
2022-08-04T06:12:21.006Z,986.25
2022-08-04T06:13:48.996Z,986.25
2022-08-04T06:14:21.930Z,986.25
2022-08-04T06:15:20.913Z,986.25
2022-08-04T06:16:28.876Z,986.25
2022-08-04T06:18:35.551Z,986.24
2022-08-04T06:19:10.077Z,986.24
2022-08-04T06:19:59.107Z,986.22
2022-08-04T06:20:23.378Z,986.21
2022-08-04T06:21:20.875Z,986.21
2022-08-04T06:22:20.860Z,986.21
2022-08-04T06:23:20.902Z,986.22
2022-08-04T06:24:20.835Z,986.23
2022-08-04T06:25:20.833Z,986.23
2022-08-04T06:26:20.817Z,986.25
2022-08-04T06:27:20.977Z,986.24
2022-08-04T06:28:20.849Z,986.25
2022-08-04T06:29:20.818Z,986.26
2022-08-04T06:30:20.813Z,986.25
2022-08-04T06:32:28.900Z,986.24
2022-08-04T06:32:29.939Z,986.26
2022-08-04T06:33:21.828Z,986.23
2022-08-04T06:34:20.770Z,986.23
2022-08-04T06:35:20.765Z,986.22
2022-08-04T06:36:20.761Z,986.23
2022-08-04T06:37:41.350Z,986.22
2022-08-04T06:38:21.720Z,986.22
2022-08-04T06:39:20.841Z,986.24
2022-08-04T06:40:31.867Z,986.23
2022-08-04T06:41:21.777Z,986.23
2022-08-04T06:42:22.610Z,986.25
2022-08-04T06:43:20.705Z,986.25
2022-08-04T06:44:24.674Z,986.26
2022-08-04T06:45:21.707Z,986.26
2022-08-04T06:46:20.670Z,986.26
2022-08-04T06:47:20.766Z,986.25
2022-08-04T06:48:20.701Z,986.23
2022-08-04T06:49:21.457Z,986.25
2022-08-04T06:51:27.183Z,986.26
2022-08-04T06:51:28.657Z,986.25
2022-08-04T06:52:22.021Z,986.26
2022-08-04T06:53:20.610Z,986.25
2022-08-04T06:54:20.613Z,986.23
2022-08-04T06:55:20.583Z,986.23
2022-08-04T06:56:20.590Z,986.22
2022-08-04T06:57:20.885Z,986.23
2022-08-04T06:58:20.573Z,986.24
2022-08-04T06:59:21.439Z,986.24
2022-08-04T07:00:20.710Z,986.24
2022-08-04T07:01:20.624Z,986.24
2022-08-04T07:02:20.602Z,986.24
2022-08-04T07:03:20.542Z,986.25
2022-08-04T07:04:20.587Z,986.27
2022-08-04T07:05:20.518Z,986.27
2022-08-04T07:06:20.509Z,986.27
2022-08-04T07:07:20.734Z,986.28
2022-08-04T07:08:21.533Z,986.26
2022-08-04T07:09:20.476Z,986.24
2022-08-04T07:10:22.159Z,986.23
2022-08-04T07:11:20.467Z,986.20
2022-08-04T07:12:20.515Z,986.18
2022-08-04T07:13:20.508Z,986.19
2022-08-04T07:14:20.456Z,986.16
2022-08-04T07:15:21.357Z,986.15
2022-08-04T07:16:20.437Z,986.16
2022-08-04T07:17:21.627Z,986.16
2022-08-04T07:18:20.430Z,986.16
2022-08-04T07:19:20.445Z,986.16
2022-08-04T07:20:34.008Z,986.15
2022-08-04T07:21:21.385Z,986.14
2022-08-04T07:22:25.754Z,986.14
2022-08-04T07:23:21.975Z,986.12
2022-08-04T07:24:20.386Z,986.13
2022-08-04T07:25:22.214Z,986.13
2022-08-04T07:26:21.352Z,986.14
2022-08-04T07:27:47.081Z,986.14
2022-08-04T07:28:21.332Z,986.14
2022-08-04T07:29:20.349Z,986.13
2022-08-04T07:30:24.452Z,986.12
2022-08-04T07:31:34.352Z,986.12
2022-08-04T07:32:21.918Z,986.11
2022-08-04T07:33:20.331Z,986.11
2022-08-04T07:34:21.276Z,986.12
2022-08-04T07:35:20.545Z,986.11
2022-08-04T07:36:21.430Z,986.11
2022-08-04T07:37:21.475Z,986.13
2022-08-04T07:38:20.344Z,986.14
2022-08-04T07:39:27.570Z,986.13
2022-08-04T07:40:21.376Z,986.15
2022-08-04T07:41:36.212Z,986.14
2022-08-04T07:42:21.233Z,986.14
2022-08-04T07:43:20.328Z,986.14
2022-08-04T07:44:20.224Z,986.14
2022-08-04T07:45:20.444Z,986.13
2022-08-04T07:46:20.200Z,986.11
2022-08-04T07:47:25.149Z,986.09
2022-08-04T07:48:21.227Z,986.08
2022-08-04T07:49:54.703Z,986.06
2022-08-04T07:50:21.165Z,986.05
2022-08-04T07:51:20.160Z,986.03
2022-08-04T07:52:20.154Z,986.03
2022-08-04T07:53:55.108Z,986.03
2022-08-04T07:54:21.173Z,986.03
2022-08-04T07:55:20.131Z,986.03
2022-08-04T07:56:20.140Z,986.02
2022-08-04T07:57:39.696Z,986.01
2022-08-04T07:58:21.122Z,986.01
2022-08-04T07:59:20.224Z,986.00
2022-08-04T08:00:20.108Z,986.00
2022-08-04T08:01:20.119Z,985.99
2022-08-04T08:02:20.083Z,985.99
2022-08-04T08:03:21.647Z,985.99
2022-08-04T08:04:20.067Z,985.99
2022-08-04T08:05:20.057Z,985.98
2022-08-04T08:06:32.108Z,985.96
2022-08-04T08:07:21.311Z,985.93
2022-08-04T08:08:20.088Z,985.92
2022-08-04T08:09:20.100Z,985.90
2022-08-04T08:10:20.022Z,985.89
2022-08-04T08:11:20.012Z,985.88
2022-08-04T08:12:36.051Z,985.88
2022-08-04T08:13:21.025Z,985.87
2022-08-04T08:14:20.028Z,985.87
2022-08-04T08:15:20.101Z,985.87
2022-08-04T08:16:19.989Z,985.86
2022-08-04T08:17:20.129Z,985.87
2022-08-04T08:18:19.991Z,985.88
2022-08-04T08:19:19.958Z,985.87
2022-08-04T08:20:29.879Z,985.87
2022-08-04T08:21:20.948Z,985.87
2022-08-04T08:22:19.936Z,985.86
2022-08-04T08:23:19.949Z,985.86
2022-08-04T08:24:19.921Z,985.87
2022-08-04T08:25:19.931Z,985.87
2022-08-04T08:26:19.930Z,985.87
2022-08-04T08:27:21.108Z,985.87
2022-08-04T08:28:19.897Z,985.86
2022-08-04T08:29:19.907Z,985.85
2022-08-04T08:30:20.036Z,985.83
2022-08-04T08:31:19.882Z,985.83
2022-08-04T08:32:19.873Z,985.82
2022-08-04T08:33:19.857Z,985.81
2022-08-04T08:34:27.446Z,985.81
2022-08-04T08:35:20.886Z,985.80
2022-08-04T08:36:19.848Z,985.79
2022-08-04T08:37:20.106Z,985.78
2022-08-04T08:38:19.823Z,985.76
2022-08-04T08:39:24.484Z,985.75
2022-08-04T08:40:39.971Z,985.74
2022-08-04T08:41:20.876Z,985.73
2022-08-04T08:42:19.819Z,985.74
2022-08-04T08:44:06.033Z,985.74
2022-08-04T08:44:30.060Z,985.73
2022-08-04T08:45:21.461Z,985.73
2022-08-04T08:46:38.814Z,985.73
2022-08-04T08:47:20.938Z,985.73
2022-08-04T08:48:19.873Z,985.72
2022-08-04T08:50:00.395Z,985.73
2022-08-04T08:50:20.762Z,985.73
2022-08-04T08:51:19.709Z,985.72
2022-08-04T08:52:57.311Z,985.72
2022-08-04T08:53:20.720Z,985.71
2022-08-04T08:54:19.694Z,985.71
2022-08-04T08:55:19.685Z,985.70
2022-08-04T08:56:19.666Z,985.70
2022-08-04T08:57:20.851Z,985.70
2022-08-04T08:58:19.715Z,985.69
2022-08-04T08:59:19.699Z,985.69
2022-08-04T09:00:19.729Z,985.69
2022-08-04T09:01:19.678Z,985.67
2022-08-04T09:02:19.638Z,985.67
2022-08-04T09:03:19.624Z,985.65
2022-08-04T09:04:23.696Z,985.65
2022-08-04T09:05:19.685Z,985.64
2022-08-04T09:06:19.602Z,985.62
2022-08-04T09:07:19.680Z,985.62
2022-08-04T09:08:19.613Z,985.62
2022-08-04T09:09:19.610Z,985.62
2022-08-04T09:10:20.005Z,985.62
2022-08-04T09:11:19.582Z,985.61
2022-08-04T09:12:25.600Z,985.61
2022-08-04T09:13:20.874Z,985.61
2022-08-04T09:14:19.536Z,985.61
2022-08-04T09:15:19.564Z,985.59
2022-08-04T09:16:19.573Z,985.58
2022-08-04T09:17:19.795Z,985.60
2022-08-04T09:18:19.500Z,985.59
2022-08-04T09:19:38.578Z,985.58
2022-08-04T09:20:20.508Z,985.58
2022-08-04T09:21:19.492Z,985.56
2022-08-04T09:22:19.486Z,985.56
2022-08-04T09:23:19.469Z,985.55
2022-08-04T09:24:35.816Z,985.55
2022-08-04T09:25:20.490Z,985.57
2022-08-04T09:26:19.457Z,985.57
2022-08-04T09:27:19.619Z,985.56
2022-08-04T09:28:37.255Z,985.56
2022-08-04T09:29:20.444Z,985.56
2022-08-04T09:30:19.477Z,985.55
2022-08-04T09:31:19.443Z,985.54
2022-08-04T09:32:19.402Z,985.54
2022-08-04T09:33:20.202Z,985.53
2022-08-04T09:34:19.446Z,985.54
2022-08-04T09:35:19.379Z,985.54
2022-08-04T09:36:26.337Z,985.54
2022-08-04T09:37:20.589Z,985.53
2022-08-04T09:38:19.361Z,985.52
2022-08-04T09:39:19.417Z,985.51
2022-08-04T09:40:31.152Z,985.50
2022-08-04T09:41:30.049Z,985.49
2022-08-04T09:42:26.057Z,985.49
2022-08-04T09:43:20.328Z,985.49
2022-08-04T09:44:48.824Z,985.46
2022-08-04T09:45:26.661Z,985.45
2022-08-04T09:46:20.374Z,985.43
2022-08-04T09:47:20.030Z,985.45
2022-08-04T09:48:19.300Z,985.44
2022-08-04T09:49:19.404Z,985.43
2022-08-04T09:50:19.274Z,985.42
2022-08-04T09:51:19.274Z,985.42
2022-08-04T09:52:19.343Z,985.41
2022-08-04T09:53:19.258Z,985.41
2022-08-04T09:54:30.146Z,985.41
2022-08-04T09:55:20.262Z,985.38
2022-08-04T09:56:19.242Z,985.36
2022-08-04T09:57:19.354Z,985.35
2022-08-04T09:58:19.231Z,985.35
2022-08-04T09:59:19.273Z,985.35
2022-08-04T10:00:19.218Z,985.33
2022-08-04T10:01:23.134Z,985.32
2022-08-04T10:02:19.514Z,985.31
2022-08-04T10:03:20.289Z,985.30
2022-08-04T10:04:19.199Z,985.30
2022-08-04T10:05:19.257Z,985.29
2022-08-04T10:06:19.207Z,985.30
2022-08-04T10:07:19.334Z,985.29
2022-08-04T10:08:19.188Z,985.30
2022-08-04T10:09:19.160Z,985.27
2022-08-04T10:10:19.151Z,985.26
2022-08-04T10:11:19.164Z,985.25
2022-08-04T10:12:19.186Z,985.24
2022-08-04T10:13:19.142Z,985.23
2022-08-04T10:14:22.964Z,985.21
2022-08-04T10:15:19.121Z,985.20
2022-08-04T10:16:19.125Z,985.19
2022-08-04T10:17:19.208Z,985.19
2022-08-04T10:18:19.114Z,985.17
2022-08-04T10:19:19.171Z,985.17
2022-08-04T10:20:34.023Z,985.15
2022-08-04T10:21:20.080Z,985.16
2022-08-04T10:22:28.302Z,985.19
2022-08-04T10:23:20.080Z,985.21
2022-08-04T10:24:19.046Z,985.17
2022-08-04T10:25:37.545Z,985.12
2022-08-04T10:26:21.008Z,985.11
2022-08-04T10:27:19.153Z,985.10
2022-08-04T10:28:19.030Z,985.10
2022-08-04T10:29:19.010Z,985.10
2022-08-04T10:30:19.041Z,985.10
2022-08-04T10:31:19.014Z,985.09
2022-08-04T10:32:19.038Z,985.09
2022-08-04T10:33:18.979Z,985.09
2022-08-04T10:34:18.983Z,985.07
2022-08-04T10:35:18.976Z,985.05
2022-08-04T10:37:59.363Z,984.98
2022-08-04T10:38:45.660Z,984.99
2022-08-04T10:39:44.743Z,985.00
2022-08-04T10:40:44.604Z,984.98
2022-08-04T10:41:44.576Z,984.97
2022-08-04T10:42:44.637Z,985.00
2022-08-04T10:43:44.549Z,985.00
2022-08-04T10:44:44.570Z,984.98
2022-08-04T10:45:44.545Z,984.99
2022-08-04T10:46:44.538Z,984.97
2022-08-04T10:47:44.531Z,984.94
2022-08-04T10:48:45.978Z,984.95
2022-08-04T10:49:44.517Z,984.96
2022-08-04T10:50:44.512Z,984.96
2022-08-04T10:51:58.436Z,984.90
2022-08-04T10:52:46.537Z,984.88
2022-08-04T10:53:44.543Z,984.85
2022-08-04T10:54:44.485Z,984.85
2022-08-04T10:56:05.453Z,984.86
2022-08-04T10:56:45.495Z,984.85
2022-08-04T10:57:44.461Z,984.84
2022-08-04T10:58:47.571Z,984.81
2022-08-04T10:59:44.446Z,984.81
2022-08-04T11:00:44.437Z,984.77
2022-08-04T11:02:00.138Z,984.76
2022-08-04T11:02:45.501Z,984.77
2022-08-04T11:03:44.416Z,984.77
2022-08-04T11:04:44.404Z,984.73
2022-08-04T11:05:44.742Z,984.78
2022-08-04T11:06:44.400Z,984.72
2022-08-04T11:07:44.456Z,984.73
2022-08-04T11:08:44.415Z,984.70
2022-08-04T11:09:44.383Z,984.73
2022-08-04T11:10:44.371Z,984.72
2022-08-04T11:12:00.257Z,984.74
2022-08-04T11:12:45.366Z,984.72
2022-08-04T11:13:47.063Z,984.71
2022-08-04T11:14:44.338Z,984.68
2022-08-04T11:15:44.346Z,984.69
2022-08-04T11:16:44.330Z,984.67
2022-08-04T11:17:44.340Z,984.68
2022-08-04T11:18:44.317Z,984.72
2022-08-04T11:19:48.647Z,984.71
2022-08-04T11:20:45.294Z,984.68
2022-08-04T11:21:44.311Z,984.64
2022-08-04T11:22:44.293Z,984.62
2022-08-04T11:23:44.288Z,984.66
2022-08-04T11:24:44.259Z,984.63
2022-08-04T11:25:47.243Z,984.63
2022-08-04T11:26:45.289Z,984.64
2022-08-04T11:27:44.316Z,984.65
2022-08-04T11:28:44.238Z,984.64
2022-08-04T11:29:44.235Z,984.63
2022-08-04T11:30:44.245Z,984.65
2022-08-04T11:31:47.269Z,984.63
2022-08-04T11:32:45.199Z,984.63
2022-08-04T11:33:44.222Z,984.65
2022-08-04T11:34:44.195Z,984.65
2022-08-04T11:35:45.203Z,984.68
2022-08-04T11:36:44.177Z,984.70
2022-08-04T11:37:44.186Z,984.67
2022-08-04T11:38:44.499Z,984.68
2022-08-04T11:39:44.224Z,984.68
2022-08-04T11:41:02.865Z,984.66
2022-08-04T11:41:45.194Z,984.68
2022-08-04T11:42:44.143Z,984.69
2022-08-04T11:44:01.468Z,984.72
2022-08-04T11:44:45.123Z,984.73
2022-08-04T11:45:44.142Z,984.74
2022-08-04T11:46:44.120Z,984.70
2022-08-04T11:47:44.112Z,984.68
2022-08-04T11:48:44.124Z,984.72
2022-08-04T11:49:57.136Z,984.73
2022-08-04T11:50:45.088Z,984.67
2022-08-04T11:51:44.107Z,984.68
2022-08-04T11:52:44.068Z,984.67
2022-08-04T11:53:44.185Z,984.74
2022-08-04T11:54:44.093Z,984.71
2022-08-04T11:56:07.807Z,984.70
2022-08-04T11:56:45.037Z,984.70
2022-08-04T11:57:44.033Z,984.69
2022-08-04T11:58:50.568Z,984.71
2022-08-04T11:59:45.065Z,984.73
2022-08-04T12:00:44.019Z,984.74
2022-08-04T12:01:44.113Z,984.75
2022-08-04T12:02:44.128Z,984.74
2022-08-04T12:03:44.000Z,984.71
2022-08-04T12:04:44.983Z,984.71
2022-08-04T12:05:44.016Z,984.70
2022-08-04T12:06:50.209Z,984.69
2022-08-04T12:07:45.321Z,984.68
2022-08-04T12:08:44.188Z,984.69
2022-08-04T12:09:43.981Z,984.70
2022-08-04T12:10:44.026Z,984.71
2022-08-04T12:11:44.037Z,984.69
2022-08-04T12:12:43.923Z,984.69
2022-08-04T12:13:43.921Z,984.68
2022-08-04T12:14:43.949Z,984.67
2022-08-04T12:15:43.906Z,984.67
2022-08-04T12:16:43.926Z,984.63
2022-08-04T12:17:52.755Z,984.71
2022-08-04T12:18:44.874Z,984.64
2022-08-04T12:20:03.479Z,984.75
2022-08-04T12:20:45.029Z,984.65
2022-08-04T12:21:50.296Z,984.65
2022-08-04T12:22:44.873Z,984.63
2022-08-04T12:23:43.854Z,984.65
2022-08-04T12:24:43.927Z,984.66
2022-08-04T12:25:45.219Z,984.61
2022-08-04T12:26:43.847Z,984.63
2022-08-04T12:27:43.834Z,984.61
2022-08-04T12:29:09.078Z,984.60
2022-08-04T12:30:54.247Z,984.58